Logo AVAMET
Benvolgut visitant, si us plau, ingressa Recuperar contrasenya
AVAMET paisatges

Elx Torrellano CEIP Antonio Machado

Dades diàries. Acumulats / Últims 30 dies disponibles

Data Temperatura (°C) Humitat rel. (%) Pressió rel. (hPa) Vent (km/h) Precipitació
Mínima Mitjana Màxima Amplitud
tèrmica
Mínima Mitjana Màxima Mínima Mitjana Màxima Predom. Mitjana Ràfega
màxima
Total
(mm)
Índex-n
Mínima Mitjana Màxima Mínima Mitjana Màxima n
0 a 1
P0 max
mm 5'
Dades mensuals acumulades fins l'últim dia disponible
02/2020 7,6 11,1 14,9 15,0 14,6 19,7 28,2 20,6 27 75 97 1.023 1.028 1.035   4,5 38,6 2,0
Dades anuals acumulades fins l'últim dia disponible
2020 3,5 9,3 14,9 13,2 13,7 17,9 28,2 24,7 27 74 97 1.013 1.028 1.036   4,8 57,9 63,6
Últims 30 dies disponibles
20-02-2020 9,4     12,8     17,1 7,7 63 80 92 1.026 1.028 1.031 W 4,1 20,9 0,0
19-02-2020 11,6     13,6     15,9 4,3 70 85 92 1.031 1.033 1.034 ESE 2,0 16,1 0,0
18-02-2020 12,4     13,3     14,6 2,2 85 92 95 1.030 1.032 1.034 E 4,1 25,7 1,6 0,20
17-02-2020 8,4     14,0     19,1 10,7 61 85 97 1.025 1.027 1.029 SE 2,8 30,6 0,2
16-02-2020 8,1     12,5     17,7 9,6 75 89 95 1.028 1.029 1.031 SSO 2,4 16,1 0,2
15-02-2020 9,1     13,4     17,3 8,2 70 81 92 1.027 1.028 1.030 ESE 3,1 16,1 0,0
14-02-2020 12,7     15,4     19,7 7,0 53 70 92 1.025 1.027 1.028 NNE 5,2 19,3 0,0
13-02-2020 10,8     15,6     21,5 10,7 50 74 90 1.023 1.025 1.026 WSW 3,8 20,9 0,0
12-02-2020 11,7     14,7     19,6 7,9 55 82 94 1.025 1.025 1.026 SSE 3,6 30,6 0,0
11-02-2020 14,9     18,8     24,4 9,5 44 65 87 1.023 1.026 1.029 SO 6,2 35,4 0,0
10-02-2020 9,4     15,9     22,9 13,5 45 68 91 1.029 1.032 1.034 OSO 6,3 27,4 0,0
09-02-2020 11,2     14,6     17,8 6,6 68 78 91 1.028 1.031 1.035 SSW 3,8 27,4 0,0
08-02-2020 7,6     13,4     20,1 12,5 54 77 91 1.025 1.027 1.029 WSW 3,9 20,9 0,0
07-02-2020 9,7     12,1     16,3 6,6 62 75 85 1.025 1.027 1.028 SO 4,3 16,1 0,0
06-02-2020 9,1     11,9     15,3 6,2 59 77 90 1.027 1.029 1.031 NNE 4,1 20,9 0,0
05-02-2020 11,6     13,8     16,4 4,8 65 77 88 1.028 1.030 1.033 E 4,5 30,6 0,0
04-02-2020 13,7     20,5     28,2 14,5 27 48 81 1.023 1.027 1.030 NW 8,3 37,0 0,0
03-02-2020 12,9     17,3     23,8 10,9 49 66 76 1.029 1.030 1.032 OSO 2,9 12,9 0,0
02-02-2020 14,8     18,0     24,2 9,4 53 69 81 1.028 1.029 1.031 O 8,3 29,0 0,0
01-02-2020 12,3     18,0     23,0 10,7 53 67 83 1.024 1.026 1.028 O 6,6 38,6 0,0
31-01-2020 14,9     17,4     21,1 6,2 53 61 68 1.023 1.025 1.026 NW 0,0 43,5 0,0
30-01-2020 13,8     16,8     21,9 8,1 51 64 80 1.023 1.024 1.026 O 6,9 46,7 0,0
29-01-2020 12,2     18,2     21,2 9,0 53 60 73 1.023 1.025 1.026 ONO 8,7 37,0 0,0
28-01-2020 8,8     13,6     21,1 12,3 52 67 78 1.023 1.025 1.026 O 4,8 30,6 0,0
27-01-2020 8,6     12,4     17,3 8,7 46 63 77 1.024 1.026 1.028 O 6,0 24,1 0,0
26-01-2020 9,1     12,8     17,7 8,6 47 71 88 1.021 1.024 1.027 WNW 6,7 32,2 0,0
25-01-2020 10,5     12,3     15,6 5,1 67 82 87 1.019 1.021 1.023 O 2,7 22,5 0,0
24-01-2020 9,2     12,1     15,5 6,3 72 79 89 1.022 1.023 1.025 SE 3,4 22,5 0,0
23-01-2020 8,4     10,7     13,9 5,5 77 84 91 1.021 1.022 1.024 E 2,7 24,1 5,2 0,75 4,20
22-01-2020 9,6     11,9     16,1 6,5 60 78 89 1.018 1.020 1.021 ESE 4,3 24,1 0,0
Últims 13 mesos disponibles
01/2020 3,5 8,2 14,9 12,1 13,7 16,6 21,9 18,4 60 73 84 1.016 1.027 1.035 O 5,0 57,9 61,6
12/2019 7,4 11,0 14,8 14,4 14,1 18,5 23,1 15,7 45 69 88 1.008 1.021 1.035 NW 5,9 61,2 55,2
11/2019 6,4 11,7 19,8 15,6 14,1 20,0 28,1 21,7 43 59 88 1.002 1.014 1.021 WNW 7,7 62,8 24,0
10/2019 10,4 16,7 21,3 20,6 16,3 25,1 30,2 19,8 48 70 89 1.011 1.019 1.024 WNW 5,1 45,1 38,2
09/2019 15,4 20,4 24,2 23,9 22,2 27,8 32,0 16,6 56 77 89 1.012 1.019 1.023 ENE 5,4 53,1 207,0
08/2019 19,6 22,9 25,4 26,6 27,7 30,8 37,3 17,7 51 72 82 1.012 1.018 1.022 E 5,8 40,2 87,8
07/2019 20,7 23,4 25,8 27,1 27,6 31,0 35,6 14,9 42 64 80 1.008 1.016 1.022 E 6,8 45,1 0,2
06/2019 14,7 18,9 23,8 23,2 22,5 27,4 34,1 19,4 43 63 82 1.011 1.017 1.024 ENE 6,7 48,3 0,2
05/2019 11,9 15,6 20,3 19,4 19,7 23,6 30,6 18,7 48 67 82 1.008 1.018 1.027 SE 5,6 49,9 1,8
04/2019 7,0 12,0 15,9 15,8 14,7 20,2 28,6 21,6 43 68 89 1.002 1.015 1.027 E 6,6 56,3 197,4
03/2019 8,6 10,5 15,6 14,8 14,3 19,5 28,2 19,6 31 59 89 1.013 1.025 1.032 ENE 6,0 45,1 18,8
02/2019 5,0 8,5 11,5 12,7 14,5 17,5 20,8 15,8 35 61 76 990 1.024 1.035 NE 3,4 70,8 3,2
01/2019 2,4 8,0 13,0 12,2 12,8 17,2 21,9 19,5 38 56 78 997 1.012 1.023 E 7,2 57,9 3,2
Tots els anys disponibles
2019 2,4 15,0 25,8 18,9 12,8 23,3 37,3 34,9 31 66 89 990 1.018 1.035 E 6,3 70,8 637,0
Temperatura (°C)
Humitat relativa (%)
Velocitat del vent i ràfega màxima (km/h)
Direcció del vent (°)
Pressió (hPa)
Precipitació (mm)
Nota sobre les dades: s'avisa a l'usuari de la provisionalitat i no oficialitat d'aquestes dades
Logo AVAMET blanc
Web allotjada a Sollutia
Llicència de Creative CommonsLa web d'AVAMET i els seus continguts estan subjectes a una llicència de
Reconeixement - No Comercial - Compartir igual
Últimes estacions:  Sorita (AVAMET), Gorga (Soci), Massalavés - Ajuntament (Soci/Inforatge), Albuixech - Polígon (Inforatge), La Torre d'en Besora (Ajuntament soci), Xixona - Sogorb Barranc Blanc (Soci), Pedreguer - Patronat (Soci) - - -